createdAt,value
2022-08-26T00:01:42.079Z,43.30
2022-08-26T00:04:12.878Z,45.75
2022-08-26T00:06:42.718Z,45.42
2022-08-26T00:09:15.992Z,46.17
2022-08-26T00:11:44.464Z,44.17
2022-08-26T00:14:13.968Z,47.33
2022-08-26T00:16:47.616Z,44.83
2022-08-26T00:19:18.293Z,45.67
2022-08-26T00:21:48.526Z,47.30
2022-08-26T00:24:18.158Z,45.92
2022-08-26T00:26:45.249Z,44.22
2022-08-26T00:29:13.139Z,44.65
2022-08-26T00:31:40.864Z,44.33
2022-08-26T00:34:09.633Z,42.13
2022-08-26T00:36:39.685Z,43.95
2022-08-26T00:39:08.731Z,43.30
2022-08-26T00:41:38.898Z,45.35
2022-08-26T00:44:07.519Z,47.33
2022-08-26T00:46:39.810Z,49.47
2022-08-26T00:49:22.693Z,49.33
2022-08-26T00:51:52.625Z,50.10
2022-08-26T00:57:16.541Z,49.28
2022-08-26T00:59:49.450Z,48.80
2022-08-26T01:02:20.199Z,49.38
2022-08-26T01:04:55.459Z,55.22
2022-08-26T01:07:26.199Z,49.28
2022-08-26T01:09:56.141Z,46.97
2022-08-26T01:12:25.302Z,45.75
2022-08-26T01:14:53.311Z,45.33
2022-08-26T01:17:20.156Z,46.05
2022-08-26T01:19:53.413Z,44.30
2022-08-26T01:22:31.485Z,45.28
2022-08-26T01:25:00.829Z,45.33
2022-08-26T01:27:33.622Z,46.97
2022-08-26T01:30:02.197Z,47.80
2022-08-26T01:32:32.963Z,48.13
2022-08-26T01:35:01.110Z,47.55
2022-08-26T01:37:34.891Z,47.83
2022-08-26T01:40:02.736Z,47.17
2022-08-26T01:42:29.923Z,49.10
2022-08-26T01:45:10.436Z,47.28
2022-08-26T01:47:38.864Z,45.63
2022-08-26T01:50:13.366Z,45.65
2022-08-26T01:52:51.641Z,45.97
2022-08-26T01:55:32.892Z,46.47
2022-08-26T01:58:05.436Z,45.40
2022-08-26T02:00:33.658Z,46.88
2022-08-26T02:03:21.140Z,45.47
2022-08-26T02:06:05.285Z,46.00
2022-08-26T02:08:46.927Z,47.70
2022-08-26T02:11:14.828Z,48.40
2022-08-26T02:13:48.907Z,53.88
2022-08-26T02:16:19.601Z,49.67
2022-08-26T02:18:47.605Z,49.17
2022-08-26T02:21:14.800Z,50.17
2022-08-26T02:23:42.726Z,52.83
2022-08-26T02:26:17.090Z,53.05
2022-08-26T02:28:51.314Z,53.75
2022-08-26T02:31:18.306Z,53.08
2022-08-26T02:33:45.179Z,51.78
2022-08-26T02:36:13.461Z,57.35
2022-08-26T02:38:43.174Z,50.80
2022-08-26T02:41:11.241Z,54.05
2022-08-26T02:43:38.508Z,50.95
2022-08-26T02:46:06.006Z,52.35
2022-08-26T02:48:33.432Z,49.90
2022-08-26T02:51:01.940Z,55.05
2022-08-26T02:53:31.761Z,55.15
2022-08-26T02:55:59.064Z,72.32
2022-08-26T02:58:27.352Z,63.05
2022-08-26T03:00:54.180Z,56.28
2022-08-26T03:03:22.549Z,56.75
2022-08-26T03:05:52.024Z,65.05
2022-08-26T03:08:20.022Z,68.25
2022-08-26T03:10:47.651Z,73.88
2022-08-26T03:13:15.796Z,79.38
2022-08-26T03:15:42.629Z,87.75
2022-08-26T03:18:11.112Z,84.15
2022-08-26T03:20:38.818Z,81.88
2022-08-26T03:23:05.646Z,82.93
2022-08-26T03:25:33.969Z,84.07
2022-08-26T03:28:02.493Z,83.65
2022-08-26T03:30:45.318Z,84.82
2022-08-26T03:33:14.226Z,84.88
2022-08-26T03:35:43.563Z,84.43
2022-08-26T03:38:11.238Z,83.75
2022-08-26T03:40:39.180Z,83.30
2022-08-26T03:43:09.727Z,84.63
2022-08-26T03:45:38.273Z,84.07
2022-08-26T03:48:05.722Z,82.25
2022-08-26T03:50:34.202Z,80.65
2022-08-26T03:53:03.696Z,79.05
2022-08-26T03:55:32.661Z,81.68
2022-08-26T03:58:00.843Z,78.88
2022-08-26T04:00:28.873Z,77.30
2022-08-26T04:02:56.138Z,77.82
2022-08-26T04:05:24.446Z,76.20
2022-08-26T04:07:52.392Z,76.43
2022-08-26T04:10:28.758Z,75.45
2022-08-26T04:12:59.326Z,74.93
2022-08-26T04:15:27.563Z,72.18
2022-08-26T04:17:55.818Z,72.43
2022-08-26T04:20:22.987Z,73.93
2022-08-26T04:22:51.146Z,69.55
2022-08-26T04:25:18.811Z,70.15
2022-08-26T04:30:16.716Z,72.40
2022-08-26T04:32:44.303Z,68.82
2022-08-26T04:35:11.572Z,71.00
2022-08-26T04:37:39.002Z,72.75
2022-08-26T04:40:10.927Z,69.47
2022-08-26T04:42:38.307Z,67.82
2022-08-26T04:45:10.323Z,66.32
2022-08-26T04:47:38.095Z,66.22
2022-08-26T04:50:07.494Z,67.85
2022-08-26T04:52:36.280Z,64.70
2022-08-26T04:55:06.658Z,62.83
2022-08-26T04:57:37.345Z,64.43
2022-08-26T05:00:07.034Z,64.13
2022-08-26T05:02:34.405Z,63.78
2022-08-26T05:05:01.692Z,62.22
2022-08-26T05:07:31.417Z,62.60
2022-08-26T05:09:58.678Z,58.63
2022-08-26T05:12:25.962Z,60.20
2022-08-26T05:14:53.698Z,61.20
2022-08-26T05:17:20.678Z,57.05
2022-08-26T05:19:48.106Z,59.63
2022-08-26T05:24:46.552Z,59.90
2022-08-26T05:27:16.187Z,57.65
2022-08-26T05:29:44.697Z,58.03
2022-08-26T05:32:11.897Z,55.33
2022-08-26T05:34:39.344Z,50.30
2022-08-26T05:37:10.867Z,49.85
2022-08-26T05:39:41.261Z,49.42
2022-08-26T05:42:10.392Z,48.58
2022-08-26T05:44:53.603Z,45.17
2022-08-26T05:47:21.311Z,43.70
2022-08-26T05:49:51.607Z,39.30
2022-08-26T05:52:19.844Z,38.00
2022-08-26T05:54:47.646Z,37.35
2022-08-26T05:57:14.880Z,37.25
2022-08-26T05:59:41.753Z,36.25
2022-08-26T06:02:09.365Z,36.72
2022-08-26T06:04:36.331Z,36.88
2022-08-26T06:07:03.528Z,35.40
2022-08-26T06:09:33.098Z,31.90
2022-08-26T06:12:01.848Z,33.63
2022-08-26T06:14:30.630Z,35.33
2022-08-26T06:16:57.855Z,35.65
2022-08-26T06:19:24.740Z,34.97
2022-08-26T06:21:54.130Z,34.20
2022-08-26T06:24:40.379Z,32.40
2022-08-26T06:27:11.418Z,31.20
2022-08-26T06:29:38.734Z,30.27
2022-08-26T06:32:06.822Z,31.60
2022-08-26T06:34:34.453Z,30.20
2022-08-26T06:37:06.401Z,29.20
2022-08-26T06:39:33.898Z,28.27
2022-08-26T06:42:02.660Z,28.70
2022-08-26T06:44:34.014Z,27.55
2022-08-26T06:47:01.032Z,28.02
2022-08-26T06:49:28.137Z,26.10
2022-08-26T06:51:58.940Z,27.75
2022-08-26T06:54:28.779Z,26.27
2022-08-26T06:56:57.536Z,25.08
2022-08-26T06:59:25.590Z,26.60
2022-08-26T07:01:53.320Z,24.77
2022-08-26T07:04:23.189Z,25.02
2022-08-26T07:06:53.620Z,25.00
2022-08-26T07:09:27.398Z,23.00
2022-08-26T07:11:56.914Z,20.58
2022-08-26T07:16:54.231Z,20.77
2022-08-26T07:19:29.791Z,21.88
2022-08-26T07:22:05.462Z,21.33
2022-08-26T07:24:36.707Z,18.52
2022-08-26T07:27:07.253Z,17.95
2022-08-26T07:29:37.928Z,17.27
2022-08-26T07:34:35.039Z,17.10
2022-08-26T07:37:02.208Z,17.20
2022-08-26T07:39:31.516Z,15.63
2022-08-26T07:42:07.369Z,15.27
2022-08-26T07:44:37.822Z,15.07
2022-08-26T07:47:10.088Z,13.80
2022-08-26T07:49:52.844Z,17.73
2022-08-26T07:52:25.924Z,17.15
2022-08-26T07:54:55.721Z,19.23
2022-08-26T07:57:24.112Z,15.52
2022-08-26T07:59:52.003Z,16.43
2022-08-26T08:02:24.795Z,16.02
2022-08-26T08:04:52.497Z,15.63
2022-08-26T08:07:19.544Z,15.82
2022-08-26T08:09:49.729Z,13.70
2022-08-26T08:12:18.313Z,14.07
2022-08-26T08:14:49.022Z,14.65
2022-08-26T08:17:16.467Z,14.38
2022-08-26T08:19:43.413Z,12.88
2022-08-26T08:22:17.254Z,12.50
2022-08-26T08:24:49.846Z,12.95
2022-08-26T08:27:23.746Z,10.70
2022-08-26T08:29:54.969Z,9.02
2022-08-26T08:32:23.493Z,10.15
2022-08-26T08:34:50.828Z,10.15
2022-08-26T08:37:17.900Z,10.52
2022-08-26T08:39:45.046Z,11.45
2022-08-26T08:42:34.702Z,10.88
2022-08-26T08:45:10.698Z,12.07
2022-08-26T08:47:58.630Z,10.90
2022-08-26T08:50:35.569Z,11.68
2022-08-26T08:53:11.154Z,12.00
2022-08-26T08:55:53.107Z,11.75
2022-08-26T08:58:24.917Z,12.40
2022-08-26T09:01:00.704Z,13.68
2022-08-26T09:03:32.551Z,12.88
2022-08-26T09:06:01.802Z,11.40
2022-08-26T09:08:35.840Z,11.65
2022-08-26T09:11:04.484Z,12.95
2022-08-26T09:13:31.979Z,13.50
2022-08-26T09:16:01.908Z,12.32
2022-08-26T09:18:54.175Z,12.43
2022-08-26T09:21:25.199Z,14.10
2022-08-26T09:23:56.127Z,12.63
2022-08-26T09:26:29.218Z,12.07
2022-08-26T09:29:00.856Z,12.90
2022-08-26T09:31:31.193Z,12.02
2022-08-26T09:34:17.427Z,12.25
2022-08-26T09:36:50.325Z,11.82
2022-08-26T09:39:37.985Z,11.65
2022-08-26T09:42:22.556Z,11.32
2022-08-26T09:45:00.414Z,11.75
2022-08-26T09:47:39.161Z,11.95
2022-08-26T09:50:29.059Z,11.60
2022-08-26T09:53:17.059Z,10.18
2022-08-26T09:55:55.209Z,10.15
2022-08-26T09:58:32.809Z,10.32
2022-08-26T10:01:03.202Z,10.93
2022-08-26T10:03:33.567Z,11.00
2022-08-26T10:06:02.433Z,10.00
2022-08-26T10:08:41.910Z,10.35
2022-08-26T10:11:25.127Z,9.07
2022-08-26T10:13:58.113Z,10.02
2022-08-26T10:16:30.102Z,9.40
2022-08-26T10:19:44.696Z,9.55
2022-08-26T10:22:30.677Z,10.32
2022-08-26T10:25:02.770Z,9.38
2022-08-26T10:27:52.912Z,9.20
2022-08-26T10:30:25.911Z,9.88
2022-08-26T10:33:03.779Z,9.15
2022-08-26T10:35:32.774Z,9.60
2022-08-26T10:38:07.777Z,8.80
2022-08-26T10:41:10.484Z,9.18
2022-08-26T10:43:45.256Z,9.85
2022-08-26T10:46:22.480Z,9.43
2022-08-26T10:49:06.897Z,9.93
2022-08-26T10:51:42.244Z,9.27
2022-08-26T10:54:39.669Z,9.45
2022-08-26T10:57:22.453Z,9.35
2022-08-26T11:00:32.506Z,9.20
2022-08-26T11:03:21.827Z,9.27
2022-08-26T11:06:19.000Z,9.90
2022-08-26T11:08:48.529Z,10.43
2022-08-26T11:11:41.709Z,9.88
2022-08-26T11:14:28.645Z,8.70
2022-08-26T11:16:59.014Z,8.07
2022-08-26T11:19:57.087Z,8.55
2022-08-26T11:22:31.065Z,8.20
2022-08-26T11:24:57.848Z,8.63
2022-08-26T11:27:37.307Z,8.38
2022-08-26T11:30:13.972Z,8.55
2022-08-26T11:32:40.833Z,8.32
2022-08-26T11:35:09.900Z,8.90
2022-08-26T11:37:40.644Z,8.35
2022-08-26T11:40:10.187Z,8.40
2022-08-26T11:42:49.239Z,9.35
2022-08-26T11:47:49.419Z,8.52
2022-08-26T11:50:26.184Z,9.13
2022-08-26T11:52:53.116Z,9.32
2022-08-26T11:55:20.281Z,8.30
2022-08-26T11:57:54.527Z,7.57
2022-08-26T12:00:26.524Z,7.85
2022-08-26T12:02:55.370Z,8.20
2022-08-26T12:08:16.790Z,8.23
2022-08-26T12:10:43.929Z,9.48
2022-08-26T12:13:22.094Z,10.35
2022-08-26T12:15:58.106Z,9.57
2022-08-26T12:18:30.164Z,10.02
2022-08-26T12:21:00.539Z,10.13
2022-08-26T12:23:36.825Z,10.93
2022-08-26T12:26:25.514Z,9.93
2022-08-26T12:28:59.327Z,9.30
2022-08-26T12:31:44.054Z,8.50
2022-08-26T12:34:18.449Z,8.77
2022-08-26T12:36:48.677Z,8.65
2022-08-26T12:39:24.335Z,9.00
2022-08-26T12:41:58.209Z,8.73
2022-08-26T12:44:53.725Z,9.00
2022-08-26T12:47:42.246Z,9.25
2022-08-26T12:50:30.709Z,8.82
2022-08-26T12:52:57.883Z,8.65
2022-08-26T12:55:29.041Z,8.35
2022-08-26T12:58:14.212Z,8.38
2022-08-26T13:00:48.847Z,8.50
2022-08-26T13:03:35.437Z,8.23
2022-08-26T13:06:30.037Z,8.77
2022-08-26T13:09:24.637Z,8.57
2022-08-26T13:11:53.182Z,9.23
2022-08-26T13:14:24.648Z,10.27
2022-08-26T13:16:52.934Z,9.50
2022-08-26T13:19:26.901Z,9.43
2022-08-26T13:21:57.642Z,9.90
2022-08-26T13:24:35.438Z,9.55
2022-08-26T13:27:04.092Z,9.40
2022-08-26T13:29:31.847Z,9.15
2022-08-26T13:31:59.708Z,9.10
2022-08-26T13:34:27.288Z,8.45
2022-08-26T13:36:56.370Z,9.45
2022-08-26T13:39:23.871Z,8.98
2022-08-26T13:41:52.196Z,9.10
2022-08-26T13:44:19.676Z,9.87
2022-08-26T13:46:47.107Z,8.63
2022-08-26T13:49:14.745Z,8.95
2022-08-26T13:51:42.009Z,9.02
2022-08-26T13:54:09.633Z,8.55
2022-08-26T13:56:37.555Z,8.35
2022-08-26T13:59:05.602Z,8.40
2022-08-26T14:01:34.983Z,8.57
2022-08-26T14:04:03.166Z,8.75
2022-08-26T14:06:30.336Z,8.87
2022-08-26T14:08:57.940Z,8.27
2022-08-26T14:11:25.185Z,8.85
2022-08-26T14:13:52.447Z,8.52
2022-08-26T14:16:29.410Z,9.63
2022-08-26T14:18:56.434Z,9.70
2022-08-26T14:21:25.032Z,8.15
2022-08-26T14:23:52.637Z,8.30
2022-08-26T14:26:28.840Z,8.85
2022-08-26T14:28:58.314Z,8.40
2022-08-26T14:31:27.064Z,8.80
2022-08-26T14:33:56.700Z,8.27
2022-08-26T14:36:31.259Z,8.25
2022-08-26T14:39:12.770Z,9.10
2022-08-26T14:41:55.007Z,9.00
2022-08-26T14:44:26.058Z,8.27
2022-08-26T14:46:54.641Z,8.55
2022-08-26T14:49:23.494Z,8.43
2022-08-26T14:51:50.552Z,8.07
2022-08-26T14:54:18.651Z,7.85
2022-08-26T14:56:54.175Z,8.45
2022-08-26T14:59:25.536Z,8.52
2022-08-26T15:01:53.657Z,8.32
2022-08-26T15:04:21.298Z,8.15
2022-08-26T15:06:48.879Z,8.10
2022-08-26T15:09:16.867Z,8.35
2022-08-26T15:11:44.701Z,8.30
2022-08-26T15:14:19.712Z,8.50
2022-08-26T15:16:52.053Z,8.85
2022-08-26T15:19:19.795Z,8.10
2022-08-26T15:21:51.084Z,8.93
2022-08-26T15:24:23.575Z,8.20
2022-08-26T15:26:50.777Z,8.10
2022-08-26T15:29:18.433Z,8.40
2022-08-26T15:31:45.619Z,8.38
2022-08-26T15:34:16.753Z,8.50
2022-08-26T15:36:46.029Z,8.95
2022-08-26T15:39:17.738Z,8.52
2022-08-26T15:41:45.619Z,8.20
2022-08-26T15:44:14.381Z,8.15
2022-08-26T15:46:42.253Z,8.88
2022-08-26T15:49:12.060Z,8.07
2022-08-26T15:51:48.054Z,8.80
2022-08-26T15:54:16.766Z,8.50
2022-08-26T15:56:47.915Z,9.30
2022-08-26T15:59:15.517Z,9.85
2022-08-26T16:01:43.396Z,10.18
2022-08-26T16:04:11.564Z,9.48
2022-08-26T16:06:40.625Z,10.30
2022-08-26T16:09:08.300Z,9.73
2022-08-26T16:11:37.532Z,9.13
2022-08-26T16:14:06.035Z,9.68
2022-08-26T16:16:33.237Z,10.80
2022-08-26T16:19:04.293Z,10.18
2022-08-26T16:21:34.284Z,10.52
2022-08-26T16:24:01.552Z,10.45
2022-08-26T16:26:32.471Z,9.93
2022-08-26T16:29:01.994Z,10.13
2022-08-26T16:33:56.015Z,10.35
2022-08-26T16:36:23.166Z,10.85
2022-08-26T16:38:53.495Z,10.15
2022-08-26T16:41:24.580Z,11.13
2022-08-26T16:43:52.058Z,11.23
2022-08-26T16:46:19.598Z,11.40
2022-08-26T16:48:46.750Z,9.82
2022-08-26T16:51:18.729Z,11.93
2022-08-26T16:53:47.450Z,12.05
2022-08-26T16:56:16.796Z,12.40
2022-08-26T17:01:10.671Z,11.65
2022-08-26T17:03:37.895Z,19.70
2022-08-26T17:06:05.257Z,23.27
2022-08-26T17:08:32.295Z,17.75
2022-08-26T17:11:00.577Z,26.83
2022-08-26T17:13:35.906Z,15.00
2022-08-26T17:16:09.028Z,19.42
2022-08-26T17:18:36.248Z,19.42
2022-08-26T17:21:10.336Z,17.83
2022-08-26T17:23:38.471Z,19.58
2022-08-26T17:26:05.693Z,17.00
2022-08-26T17:28:33.671Z,17.42
2022-08-26T17:31:01.294Z,18.48
2022-08-26T17:33:29.117Z,16.70
2022-08-26T17:35:56.506Z,17.98
2022-08-26T17:38:24.195Z,16.85
2022-08-26T17:40:51.370Z,16.75
2022-08-26T17:43:19.006Z,15.65
2022-08-26T17:45:46.321Z,15.45
2022-08-26T17:48:13.366Z,16.70
2022-08-26T17:50:42.121Z,17.60
2022-08-26T17:53:19.606Z,15.53
2022-08-26T17:55:48.122Z,17.25
2022-08-26T17:58:19.992Z,17.63
2022-08-26T18:00:50.038Z,17.25
2022-08-26T18:03:18.455Z,17.85
2022-08-26T18:05:51.063Z,18.75
2022-08-26T18:08:18.827Z,18.08
2022-08-26T18:10:46.239Z,18.45
2022-08-26T18:13:14.971Z,17.83
2022-08-26T18:15:45.625Z,18.98
2022-08-26T18:18:14.515Z,19.27
2022-08-26T18:20:43.115Z,16.38
2022-08-26T18:23:11.782Z,17.90
2022-08-26T18:25:43.320Z,17.30
2022-08-26T18:28:10.536Z,17.50
2022-08-26T18:30:38.105Z,17.75
2022-08-26T18:33:05.249Z,19.00
2022-08-26T18:36:01.381Z,17.75
2022-08-26T18:38:30.469Z,17.98
2022-08-26T18:40:59.255Z,18.98
2022-08-26T18:43:26.574Z,15.43
2022-08-26T18:46:02.665Z,17.10
2022-08-26T18:48:29.733Z,18.08
2022-08-26T18:51:00.106Z,15.10
2022-08-26T18:53:28.163Z,15.80
2022-08-26T18:55:55.606Z,15.10
2022-08-26T18:58:22.579Z,18.23
2022-08-26T19:00:49.723Z,17.55
2022-08-26T19:03:19.030Z,16.50
2022-08-26T19:05:46.125Z,18.95
2022-08-26T19:08:13.179Z,14.38
2022-08-26T19:10:41.533Z,14.32
2022-08-26T19:13:09.833Z,23.77
2022-08-26T19:15:40.487Z,25.63
2022-08-26T19:18:08.997Z,26.67
2022-08-26T19:20:44.752Z,26.75
2022-08-26T19:23:31.064Z,25.63
2022-08-26T19:26:03.606Z,21.58
2022-08-26T19:28:31.638Z,15.80
2022-08-26T19:30:59.850Z,25.50
2022-08-26T19:33:28.369Z,22.52
2022-08-26T19:35:55.808Z,26.52
2022-08-26T19:38:23.675Z,24.20
2022-08-26T19:40:50.835Z,27.48
2022-08-26T19:43:17.965Z,22.88
2022-08-26T19:45:46.538Z,26.58
2022-08-26T19:48:13.637Z,29.08
2022-08-26T19:50:40.725Z,33.58
2022-08-26T19:53:10.372Z,36.45
2022-08-26T19:55:37.757Z,37.65
2022-08-26T19:58:04.686Z,41.70
2022-08-26T20:00:32.014Z,39.05
2022-08-26T20:02:59.758Z,35.13
2022-08-26T20:05:26.942Z,27.63
2022-08-26T20:07:54.252Z,34.22
2022-08-26T20:10:23.695Z,35.45
2022-08-26T20:15:21.758Z,39.67
2022-08-26T20:17:49.415Z,40.08
2022-08-26T20:20:34.948Z,42.78
2022-08-26T20:23:04.465Z,44.97
2022-08-26T20:25:32.942Z,44.38
2022-08-26T20:28:00.889Z,38.95
2022-08-26T20:30:27.842Z,46.83
2022-08-26T20:32:55.330Z,28.30
2022-08-26T20:35:24.032Z,28.60
2022-08-26T20:37:51.117Z,33.00
2022-08-26T20:40:18.147Z,45.92
2022-08-26T20:42:45.726Z,37.70
2022-08-26T20:45:12.731Z,44.42
2022-08-26T20:47:39.743Z,37.20
2022-08-26T20:50:08.698Z,48.88
2022-08-26T20:52:35.936Z,46.63
2022-08-26T20:55:02.966Z,51.17
2022-08-26T20:57:30.502Z,53.00
2022-08-26T20:59:57.800Z,56.65
2022-08-26T21:02:27.856Z,60.13
2022-08-26T21:04:55.278Z,66.25
2022-08-26T21:07:22.431Z,53.70
2022-08-26T21:09:49.624Z,55.58
2022-08-26T21:12:18.655Z,61.80
2022-08-26T21:14:49.500Z,67.68
2022-08-26T21:17:16.798Z,62.08
2022-08-26T21:19:45.785Z,61.58
2022-08-26T21:22:14.139Z,61.67
2022-08-26T21:24:42.724Z,69.05
2022-08-26T21:27:09.779Z,65.65
2022-08-26T21:29:37.605Z,64.50
2022-08-26T21:32:07.553Z,45.30
2022-08-26T21:34:34.633Z,54.55
2022-08-26T21:37:01.849Z,59.83
2022-08-26T21:39:32.979Z,65.82
2022-08-26T21:41:59.866Z,62.47
2022-08-26T21:44:27.925Z,63.05
2022-08-26T21:46:57.222Z,43.63
2022-08-26T21:49:24.176Z,46.05
2022-08-26T21:51:55.812Z,40.75
2022-08-26T21:54:23.053Z,46.17
2022-08-26T21:56:50.964Z,44.88
2022-08-26T21:59:19.125Z,53.45
2022-08-26T22:01:47.084Z,46.63
2022-08-26T22:04:14.956Z,54.63
2022-08-26T22:06:45.843Z,58.22
2022-08-26T22:09:14.784Z,64.70
2022-08-26T22:11:42.245Z,60.72
2022-08-26T22:14:10.198Z,64.80
2022-08-26T22:16:37.785Z,66.22
2022-08-26T22:19:04.913Z,55.15
2022-08-26T22:21:33.542Z,55.50
2022-08-26T22:24:00.616Z,48.10
2022-08-26T22:26:32.086Z,46.50
2022-08-26T22:29:00.694Z,44.60
2022-08-26T22:31:37.304Z,43.55
2022-08-26T22:34:17.273Z,53.42
2022-08-26T22:36:46.986Z,48.38
2022-08-26T22:39:15.706Z,47.60
2022-08-26T22:41:44.145Z,51.00
2022-08-26T22:44:12.468Z,49.08
2022-08-26T22:46:40.894Z,52.03
2022-08-26T22:49:09.627Z,53.78
2022-08-26T22:51:36.821Z,58.00
2022-08-26T22:54:04.793Z,55.83
2022-08-26T22:56:31.897Z,57.17
2022-08-26T22:58:59.189Z,56.80
2022-08-26T23:01:26.797Z,54.75
2022-08-26T23:03:53.969Z,58.33
2022-08-26T23:06:21.667Z,58.53
2022-08-26T23:08:49.467Z,60.42
2022-08-26T23:11:16.513Z,57.90
2022-08-26T23:13:43.767Z,61.13
2022-08-26T23:16:12.963Z,58.42
2022-08-26T23:18:41.454Z,56.28
2022-08-26T23:21:09.283Z,55.40
2022-08-26T23:23:38.091Z,53.80
2022-08-26T23:26:07.826Z,54.40
2022-08-26T23:28:38.575Z,52.65
2022-08-26T23:31:06.770Z,50.75
2022-08-26T23:33:52.235Z,51.03
2022-08-26T23:36:22.784Z,49.95
2022-08-26T23:38:53.091Z,50.60
2022-08-26T23:41:23.065Z,51.70
2022-08-26T23:43:51.657Z,53.30
2022-08-26T23:46:19.368Z,54.85
2022-08-26T23:48:47.036Z,54.80
2022-08-26T23:51:32.462Z,53.15
2022-08-26T23:54:00.054Z,55.33
2022-08-26T23:56:27.118Z,52.97
2022-08-26T23:58:54.932Z,53.63
